Carlton, Colorado
Current Conditions -  °F | °C
As of 5:53 PM on Monday 24 Nov 2014 (Local Time) from KLAA Reporting Station
Clear Clear  
Wind Chill: 30°   Ceiling: Unl
Heat Index: 38°   Visibility: 10mi
Dew Point: 21°   Wind: 14mph
Humidity: 51%   Direction: 350°N
Pressure: 30.12"   Gusts: NA
Location:  37.885°N, 102.667°W
Report Text: KLAA 250053Z AUTO 35012KT 10SM CLR 03/M06 A3012 RMK AO2 SLP217 T00331061
Loading
Personal Weather Stations






























Interactive Weather Map New forecast layout! Learn more

10-Day Weather Forecast

Advertisements
Track Severe Weather on mobile